Cabo Engano, Dominican Republic

2:23 PM AST on July 12, 2014 (GMT -0400)
Bocaina (ISANTODO6) Elev 131 ft | 18.45 °N, 69.56 °W | Change Station

Current weather conditions updated 9 minutes ago

Scattered Clouds
Scattered Clouds
90.0 °F
Feels Like 101 °F
N
7.0
Wind Variable Wind from SE
Gusts 19.0 mph

Today is forecast to be nearly the same temperature as yesterday. A few thunderstorms possible.

Today
High -- | Low -- °F
--% Chance of Precip.
Yesterday
High -- | Low -- °F
Precip. -- in
6:07 AM 7:17 PM
Full, 100% visible
Pressure 30.04 in
Visibility 6.2 miles
Clouds Scattered Clouds 2500 ft
Heat Index 101 °F
Dew Point 75 °F
Humidity 62%
Rainfall 0.00 in
Snow Depth Not available.
UV 14 out of 12
Pollen Not available.
Air Quality Not available.
Flu Activity Not available.
METAR MDLR 121800Z 11012KT 9999 SCT025 33/22 Q1017

More Conditions Fewer Conditions

Pressure 30.04 in
Visibility 6.2 miles
Clouds Scattered Clouds 2500 ft
Heat Index 101 °F
Dew Point 75 °F
Humidity 62%
Rainfall 0.00 in
Snow Depth Not available.
UV 14 out of 12
Pollen Not available.
Air Quality Not available.
Flu Activity Not available.
METAR MDLR 121800Z 11012KT 9999 SCT025 33/22 Q1017

More Conditions Fewer Conditions

10-Day Weather Forecast

Almanac

Astronomy

Jul. 12, 2014 Rise Set
Actual Time 6:07 AM AST 7:17 PM AST
Civil Twilight 5:43 AM AST 7:41 PM AST
Nautical Twilight 5:15 AM AST 8:10 PM AST
Astronomical Twilight 4:46 AM AST 8:39 PM AST
Moon 7:31 PM AST 6:12 AM AST
Length of Visible Light 13h 57m
Length of Day
13h 10m
Tomorrow will be 0m 29s shorter.
Full, 100% of the Moon is Illuminated
Today
Full
Jul 18
Last Quarter
Jul 26
New
Aug 3
First Quarter
Aug 10
Full

Today's Extremes

Country Highs Country Lows

Community

WunderPhotos

Upload Photos

1,732,908 photos uploaded!

WunderBlogs® & News

By Dr. Jeff Masters
Director of Meteorology, Weather Underground
By Kari Strenfel
Meteorologist, Weather Underground
By Christopher C. Burt
Weather Historian, Weather Underground
July 12, 2014
July 12, 2014
July 12, 2014

Nearby

Snow Depth

Not available.

Earthquake Activity

City Distance Mag. Time & Date
No recent earthquake activity has been reported nearby.
Minimum magnitude displayed is 2.5.

Coastal Water Temperatures

Place Temperature
No Stations Reporting

Nearby Weather Stations

Station Location Temp. Heat Index Dew Point Humidity Wind Precip. Elev Updated Type
Bocaina, Boca Chica 90.0 °F 101 °F 75 °F 62% SE  at  7.0 mph 0.00 in / hr 131 ft 2:13 PM AST Normal

Show More Stations Show Fewer Stations